Time;durP1;ratioP1;P1;durP2;ratioP2;P2;SDS_P1;SDS_P2;PMS_P1;PMS_P2;Temp;Humidity;BMP_temperature;BMP_pressure;BME280_temperature;BME280_humidity;BME280_pressure;Samples;Min_cycle;Max_cycle;Signal;HPM_P1;HPM_P2
2021/12/14 00:01:26;;;;;;;2.40;1.90;;;;;;;0.01;85.91;99534.42;101696;1319;76116;-23
2021/12/14 00:03:57;;;;;;;3.40;2.50;;;;;;;0.36;84.76;99533.36;101574;1318;74645;-23
2021/12/14 00:06:29;;;;;;;3.20;2.30;;;;;;;0.31;84.64;99527.73;101591;1319;61226;-23
2021/12/14 00:09:00;;;;;;;4.50;2.80;;;;;;;0.25;84.73;99530.80;101774;1322;61244;-24
2021/12/14 00:14:26;;;;;;;3.60;2.50;;;;;;;-0.15;86.69;99534.73;101750;1319;76549;-23
2021/12/14 00:16:57;;;;;;;;;;;;;;;0.28;85.40;99534.47;101798;1316;70762;-23
2021/12/14 00:19:27;;;;;;;3.40;2.60;;;;;;;0.43;84.66;99533.83;101723;1319;61207;-24
2021/12/14 00:24:57;;;;;;;4.40;2.70;;;;;;;0.08;85.53;99531.51;101224;1324;74614;-23
2021/12/14 00:27:26;;;;;;;3.00;1.70;;;;;;;-0.15;86.38;99529.77;101286;1325;76096;-23
2021/12/14 00:29:57;;;;;;;1.60;1.20;;;;;;;0.26;85.46;99528.05;101272;1321;72148;-23
2021/12/14 00:32:28;;;;;;;2.90;2.20;;;;;;;0.46;84.19;99528.95;101167;1323;62190;-23
2021/12/14 00:34:59;;;;;;;3.00;1.80;;;;;;;0.34;84.19;99535.66;101140;1325;61502;-23
2021/12/14 00:37:33;;;;;;;1.90;1.70;;;;;;;0.25;84.51;99539.86;101165;1324;74644;-23
2021/12/14 00:40:12;;;;;;;3.30;1.70;;;;;;;-0.06;85.84;99541.13;101162;1324;75016;-23
2021/12/14 00:42:40;;;;;;;2.40;1.20;;;;;;;0.02;85.59;99540.39;101268;1321;73373;-23
2021/12/14 00:45:09;;;;;;;1.40;1.20;;;;;;;0.29;84.37;99543.47;101207;1324;62169;-23
2021/12/14 00:47:37;;;;;;;4.00;1.80;;;;;;;0.32;84.40;99543.06;101285;1327;61402;-23
2021/12/14 00:50:08;;;;;;;1.80;1.40;;;;;;;0.17;84.83;99547.45;101254;1322;76056;-23
2021/12/14 00:52:36;;;;;;;2.90;1.90;;;;;;;0.09;85.21;99546.16;101336;1323;76009;-23
2021/12/14 00:55:06;;;;;;;1.60;1.20;;;;;;;0.06;85.42;99545.55;101834;1315;73597;-23
2021/12/14 00:57:37;;;;;;;1.60;1.40;;;;;;;0.54;83.83;99549.73;101308;1316;61225;-23
2021/12/14 01:00:07;;;;;;;2.50;1.80;;;;;;;0.60;83.41;99551.06;101712;1317;61921;-23
2021/12/14 01:02:36;;;;;;;2.50;1.80;;;;;;;0.61;83.25;99547.63;101591;1320;76117;-23
2021/12/14 01:05:12;;;;;;;2.70;1.70;;;;;;;0.37;84.10;99550.77;101762;1322;76610;-23
2021/12/14 01:07:40;;;;;;;2.50;1.60;;;;;;;0.10;85.16;99550.90;101514;1318;73614;-23
2021/12/14 01:10:20;;;;;;;1.80;1.20;;;;;;;0.38;84.66;99546.11;101640;1315;61678;-23
2021/12/14 01:12:52;;;;;;;3.40;2.10;;;;;;;0.67;83.47;99542.31;101712;1317;61217;-23
2021/12/14 01:24:01;;;;;;;2.80;1.50;;;;;;;0.44;84.45;99538.24;101714;1319;61204;-23
2021/12/14 01:26:38;;;;;;;2.70;1.80;;;;;;;0.58;83.40;99534.92;101617;1318;61361;-23
2021/12/14 01:29:08;;;;;;;2.70;2.10;;;;;;;0.52;83.98;99536.96;101641;1317;75707;-23
2021/12/14 01:31:40;;;;;;;5.20;2.10;;;;;;;0.35;84.35;99541.42;101744;1318;74644;-23
2021/12/14 01:34:12;;;;;;;3.60;1.90;;;;;;;0.12;85.14;99535.99;101747;1319;74633;-23
2021/12/14 01:36:45;;;;;;;4.00;2.30;;;;;;;0.24;85.02;99539.20;101698;1321;62575;-23
2021/12/14 01:42:05;;;;;;;3.60;2.00;;;;;;;0.77;82.54;99540.62;101715;1318;75501;-23
2021/12/14 01:44:40;;;;;;;2.10;1.30;;;;;;;0.49;83.16;99539.79;101755;1317;75003;-23
2021/12/14 01:47:13;;;;;;;4.00;2.30;;;;;;;0.15;84.77;99540.17;101628;1316;73697;-24
2021/12/14 01:50:11;;;;;;;4.90;2.60;;;;;;;0.36;84.76;99537.63;101667;1317;62813;-23
2021/12/14 01:52:58;;;;;;;3.30;1.90;;;;;;;0.77;82.51;99538.88;101451;1321;61226;-23
2021/12/14 01:55:30;;;;;;;2.60;1.60;;;;;;;0.77;82.36;99538.22;101785;1317;75416;-24
2021/12/14 01:58:00;;;;;;;2.80;1.90;;;;;;;0.63;82.78;99538.65;101422;1321;75197;-25
2021/12/14 02:00:46;;;;;;;6.10;2.70;;;;;;;0.42;83.63;99538.63;101694;1321;74442;-25
2021/12/14 02:03:15;;;;;;;7.30;2.60;;;;;;;0.26;84.50;99541.54;101557;1324;61427;-23
2021/12/14 02:05:47;;;;;;;6.60;2.70;;;;;;;0.63;83.12;99543.59;101550;1318;61504;-24
2021/12/14 02:08:19;;;;;;;4.50;2.60;;;;;;;0.89;81.66;99538.98;101142;1322;74752;-24
2021/12/14 02:10:49;;;;;;;3.00;1.80;;;;;;;0.79;81.89;99548.07;101265;1322;75867;-24
2021/12/14 02:13:35;;;;;;;4.60;1.50;;;;;;;0.70;82.22;99548.84;101712;1317;74483;-24
2021/12/14 02:16:04;;;;;;;1.80;1.60;;;;;;;0.36;83.25;99552.66;101725;1317;61103;-24
2021/12/14 02:18:57;;;;;;;2.80;1.10;;;;;;;0.19;84.52;99550.83;101454;1321;61170;-24
2021/12/14 02:21:25;;;;;;;3.20;1.80;;;;;;;0.72;82.81;99556.15;101600;1322;74754;-24
2021/12/14 02:23:54;;;;;;;2.40;1.70;;;;;;;0.71;82.03;99554.64;101744;1319;74631;-24
2021/12/14 02:26:27;;;;;;;2.60;1.80;;;;;;;0.40;83.43;99556.83;101638;1319;73031;-24
2021/12/14 02:29:01;;;;;;;2.60;1.20;;;;;;;0.38;83.48;99557.73;101244;1322;61238;-24
2021/12/14 02:31:30;;;;;;;3.80;2.50;;;;;;;0.27;84.19;99565.23;101255;1321;62177;-24
2021/12/14 02:34:02;;;;;;;4.70;2.40;;;;;;;0.27;84.26;99559.95;101729;1318;75643;-24
2021/12/14 02:36:37;;;;;;;2.60;2.10;;;;;;;0.58;83.15;99559.66;101686;1316;73080;-24
2021/12/14 02:39:11;;;;;;;3.60;1.80;;;;;;;0.63;82.36;99561.91;101368;1318;70843;-24
2021/12/14 02:41:48;;;;;;;3.30;2.20;;;;;;;0.40;83.73;99561.61;101248;1321;61227;-24
2021/12/14 02:44:17;;;;;;;4.30;1.60;;;;;;;0.23;84.43;99565.69;101488;1318;62223;-24
2021/12/14 02:46:49;;;;;;;3.40;1.40;;;;;;;0.06;85.22;99568.93;101413;1325;75257;-23
2021/12/14 02:49:21;;;;;;;2.30;1.50;;;;;;;0.53;83.84;99569.55;101349;1322;76104;-24
2021/12/14 02:51:55;;;;;;;4.20;2.10;;;;;;;0.85;82.07;99570.25;101573;1322;74612;-24
2021/12/14 02:54:27;;;;;;;4.10;2.10;;;;;;;0.91;81.57;99569.20;101761;1319;62153;-24
2021/12/14 02:57:02;;;;;;;4.90;2.40;;;;;;;0.64;82.63;99574.33;101784;1322;61173;-24
2021/12/14 02:59:37;;;;;;;7.20;2.60;;;;;;;0.39;83.89;99574.28;101730;1319;75819;-24
2021/12/14 03:02:08;;;;;;;2.70;1.80;;;;;;;0.22;84.26;99573.94;101683;1321;74988;-24
2021/12/14 03:04:46;;;;;;;3.70;2.00;;;;;;;0.58;83.56;99575.71;101681;1318;73525;-24
2021/12/14 03:07:18;;;;;;;4.20;1.70;;;;;;;0.76;82.53;99577.21;101643;1319;61880;-24
2021/12/14 03:12:20;;;;;;;3.10;1.90;;;;;;;0.37;84.20;99583.06;101475;1316;74364;-24
2021/12/14 03:14:54;;;;;;;2.70;1.90;;;;;;;0.18;84.93;99588.90;101719;1316;74391;-24
2021/12/14 03:17:23;;;;;;;2.90;1.60;;;;;;;0.37;84.85;99586.97;101546;1318;74786;-24
2021/12/14 03:19:55;;;;;;;2.30;1.50;;;;;;;0.72;83.10;99587.57;101627;1317;61402;-24
2021/12/14 03:22:34;;;;;;;3.50;2.10;;;;;;;0.69;82.72;99586.67;101384;1317;61257;-24
2021/12/14 03:25:03;;;;;;;4.40;2.40;;;;;;;0.39;83.93;99587.77;101684;1319;75641;-24
2021/12/14 03:27:33;;;;;;;3.50;2.30;;;;;;;0.18;85.06;99581.06;101442;1319;75980;-23
2021/12/14 03:30:02;;;;;;;2.20;1.40;;;;;;;0.07;85.63;99578.32;101339;1318;73305;-24
2021/12/14 03:32:34;;;;;;;2.70;1.40;;;;;;;0.51;84.53;99580.05;101863;1316;61245;-24
2021/12/14 03:35:03;;;;;;;1.80;1.10;;;;;;;0.76;82.97;99580.95;101686;1318;61185;-24
2021/12/14 03:37:32;;;;;;;3.40;2.20;;;;;;;0.57;83.48;99582.77;101737;1317;75703;-24
2021/12/14 03:40:01;;;;;;;3.80;1.60;;;;;;;0.33;84.50;99583.52;101636;1320;75207;-24
2021/12/14 03:42:37;;;;;;;12.50;4.80;;;;;;;0.17;85.18;99583.13;101698;1317;74565;-24
2021/12/14 03:45:16;;;;;;;4.10;1.70;;;;;;;0.33;84.96;99583.34;101561;1318;61181;-24
2021/12/14 03:47:53;;;;;;;2.80;1.30;;;;;;;0.74;83.31;99579.48;101273;1320;61247;-24
2021/12/14 03:50:29;;;;;;;3.80;1.60;;;;;;;0.73;82.68;99578.86;101492;1323;74678;-23
2021/12/14 03:53:02;;;;;;;2.20;1.60;;;;;;;0.38;84.47;99580.13;101753;1322;76085;-24
2021/12/14 03:55:35;;;;;;;1.80;1.50;;;;;;;0.28;84.64;99582.11;101496;1319;73308;-24
2021/12/14 03:58:09;;;;;;;3.10;1.60;;;;;;;0.16;85.49;99584.36;101465;1316;62028;-23
2021/12/14 04:00:40;;;;;;;3.20;1.80;;;;;;;0.57;84.33;99586.52;101302;1323;61208;-24
2021/12/14 04:03:11;;;;;;;1.40;1.00;;;;;;;0.78;82.75;99581.42;101763;1319;75610;-24
2021/12/14 04:05:48;;;;;;;2.20;1.30;;;;;;;0.62;83.18;99583.63;102152;1316;75185;-23
2021/12/14 04:08:16;;;;;;;2.70;1.60;;;;;;;0.56;83.48;99588.29;101924;1313;338946;-24
2021/12/14 04:10:47;;;;;;;2.00;1.60;;;;;;;0.32;84.54;99594.64;101673;1315;61722;-24
2021/12/14 04:13:18;;;;;;;1.70;1.20;;;;;;;0.14;85.35;99598.77;101695;1317;61126;-24
2021/12/14 04:15:46;;;;;;;2.60;2.20;;;;;;;0.36;84.70;99601.70;101859;1314;76007;-23
2021/12/14 04:18:16;;;;;;;2.40;1.40;;;;;;;0.50;83.82;99600.24;101797;1313;75972;-24
2021/12/14 04:20:44;;;;;;;2.40;1.60;;;;;;;0.59;83.69;99603.05;101954;1318;74269;-24
2021/12/14 04:23:18;;;;;;;4.20;1.60;;;;;;;0.40;83.86;99603.11;101913;1316;61133;-24
2021/12/14 04:25:47;;;;;;;3.10;1.70;;;;;;;0.13;84.99;99602.55;101835;1317;62097;-24
2021/12/14 04:28:19;;;;;;;2.90;1.90;;;;;;;0.23;84.76;99601.59;101785;1316;75657;-23
2021/12/14 04:30:47;;;;;;;3.00;1.80;;;;;;;0.66;83.81;99598.70;101783;1317;76145;-24
2021/12/14 04:33:24;;;;;;;2.60;1.50;;;;;;;0.59;82.85;99599.79;102193;1312;72928;-24
2021/12/14 04:35:52;;;;;;;3.90;1.60;;;;;;;0.36;84.07;99604.77;101898;1317;61177;-24
2021/12/14 04:38:27;;;;;;;4.50;1.80;;;;;;;0.18;84.77;99606.16;102198;1314;61118;-24
2021/12/14 04:52:16;;;;;;;3.30;2.10;;;;;;;0.27;84.14;99605.55;101898;1316;61151;-26
2021/12/14 04:54:55;;;;;;;1.60;1.40;;;;;;;0.00;85.61;99608.55;101768;1314;72851;-27
2021/12/14 04:57:29;;;;;;;2.50;1.80;;;;;;;0.41;84.58;99610.60;101799;1315;75204;-24
2021/12/14 05:00:20;;;;;;;2.00;1.10;;;;;;;0.72;82.87;99615.44;101697;1313;74361;-24
2021/12/14 05:02:57;;;;;;;4.20;2.60;;;;;;;0.54;83.23;99613.09;101757;1313;61192;-23
2021/12/14 05:05:39;;;;;;;2.80;1.60;;;;;;;0.18;84.47;99614.16;101930;1315;61250;-25
2021/12/14 05:10:46;;;;;;;3.30;2.40;;;;;;;0.20;85.33;99616.86;101871;1316;75014;-26
2021/12/14 05:13:17;;;;;;;2.30;1.50;;;;;;;0.53;83.89;99612.95;101736;1318;73495;-24
2021/12/14 05:15:46;;;;;;;5.60;2.50;;;;;;;0.43;84.10;99614.46;101719;1320;62186;-24
2021/12/14 05:18:15;;;;;;;4.30;2.80;;;;;;;0.38;84.38;99613.94;101939;1314;61195;-24
2021/12/14 05:20:46;;;;;;;4.80;2.20;;;;;;;0.20;84.97;99617.89;102180;1312;75706;-24
2021/12/14 05:23:28;;;;;;;3.50;1.80;;;;;;;0.05;85.69;99616.77;101884;1315;76259;-24
2021/12/14 05:26:02;;;;;;;1.80;1.20;;;;;;;0.49;84.38;99613.94;101917;1314;74428;-24
2021/12/14 05:28:32;;;;;;;2.40;1.50;;;;;;;0.72;83.09;99613.90;101926;1316;61179;-25
2021/12/14 05:31:03;;;;;;;2.90;2.10;;;;;;;0.61;83.47;99610.50;101750;1314;61206;-24
2021/12/14 05:33:35;;;;;;;7.40;4.30;;;;;;;0.30;84.59;99609.89;101920;1313;75459;-24
2021/12/14 05:36:21;;;;;;;3.30;2.40;;;;;;;0.06;85.37;99611.97;101951;1312;75159;-24
2021/12/14 05:44:28;;;;;;;2.30;1.60;;;;;;;0.57;83.38;99613.88;102241;1315;61217;-25
2021/12/14 05:47:04;;;;;;;2.60;1.90;;;;;;;0.33;84.25;99612.21;102161;1312;75773;-24
2021/12/14 05:49:45;;;;;;;2.10;1.70;;;;;;;0.10;85.07;99618.34;101848;1316;75114;-24
2021/12/14 05:52:22;;;;;;;1.30;1.20;;;;;;;-0.03;85.76;99626.06;101755;1315;73482;-25
2021/12/14 05:54:53;;;;;;;2.50;1.70;;;;;;;0.24;85.09;99624.42;101903;1316;61560;-25
2021/12/14 05:57:23;;;;;;;2.00;1.80;;;;;;;0.52;84.01;99623.59;101924;1316;61300;-24
2021/12/14 05:59:53;;;;;;;2.30;1.80;;;;;;;0.58;83.50;99623.06;101917;1315;75423;-24
2021/12/14 06:02:23;;;;;;;2.60;1.50;;;;;;;0.33;84.41;99622.63;102233;1313;76205;-24
2021/12/14 06:04:53;;;;;;;2.60;1.80;;;;;;;0.30;84.18;99624.92;101895;1317;73682;-24
2021/12/14 06:07:23;;;;;;;2.40;1.80;;;;;;;-0.10;85.64;99628.14;102072;1312;62721;-25
2021/12/14 06:09:52;;;;;;;3.60;2.00;;;;;;;0.23;85.11;99626.84;102027;1312;61088;-24
2021/12/14 06:12:29;;;;;;;2.10;1.60;;;;;;;0.54;83.86;99627.96;102048;1312;75327;-24
2021/12/14 06:14:59;;;;;;;2.90;1.70;;;;;;;0.46;83.79;99629.92;101723;1315;76146;-24
2021/12/14 06:17:30;;;;;;;2.10;1.50;;;;;;;0.20;84.56;99630.70;101778;1318;74472;-24
2021/12/14 06:20:09;;;;;;;2.70;1.50;;;;;;;-0.06;85.87;99632.48;101735;1315;61340;-24
2021/12/14 06:22:39;;;;;;;1.10;0.90;;;;;;;0.16;85.29;99637.13;101793;1320;61829;-24
2021/12/14 06:25:20;;;;;;;5.00;2.40;;;;;;;0.57;83.63;99635.91;102147;1314;76005;-24
2021/12/14 06:27:48;;;;;;;3.40;2.70;;;;;;;0.35;84.11;99635.73;102207;1314;76092;-24
2021/12/14 06:30:22;;;;;;;5.70;2.90;;;;;;;0.25;84.58;99636.88;101970;1315;74276;-24
2021/12/14 06:32:54;;;;;;;4.00;2.40;;;;;;;-0.03;85.69;99636.47;101810;1316;61186;-24
2021/12/14 06:35:24;;;;;;;14.10;7.00;;;;;;;0.11;85.47;99642.90;101884;1320;61205;-24
2021/12/14 06:40:34;;;;;;;4.10;2.60;;;;;;;0.57;83.56;99642.08;102256;1316;76462;-24
2021/12/14 06:43:12;;;;;;;3.20;2.60;;;;;;;0.34;84.19;99645.30;101852;1315;73639;-24
2021/12/14 06:45:44;;;;;;;4.80;3.00;;;;;;;0.13;85.14;99646.95;102123;1313;61254;-24
2021/12/14 06:48:20;;;;;;;2.50;1.80;;;;;;;-0.02;85.88;99648.03;101735;1316;61186;-24
2021/12/14 06:50:53;;;;;;;3.40;2.10;;;;;;;0.52;84.43;99648.54;101733;1313;75583;-24
2021/12/14 06:53:40;;;;;;;3.90;3.00;;;;;;;0.82;82.64;99647.11;101797;1316;74479;-24
2021/12/14 06:56:32;;;;;;;5.10;2.30;;;;;;;0.44;83.71;99653.72;101967;1313;72955;-24
2021/12/14 06:59:22;;;;;;;5.40;2.50;;;;;;;0.20;84.74;99654.27;101836;1315;61157;-23
2021/12/14 07:02:18;;;;;;;3.30;1.30;;;;;;;-0.03;85.78;99654.58;102198;1312;61202;-23
2021/12/14 07:05:06;;;;;;;2.90;1.80;;;;;;;0.34;85.07;99656.08;102272;1314;74767;-24
2021/12/14 07:07:39;;;;;;;6.20;2.80;;;;;;;0.57;83.86;99660.02;102164;1313;72281;-24
2021/12/14 07:10:13;;;;;;;5.60;2.70;;;;;;;0.57;83.62;99662.73;102193;1315;74618;-23
2021/12/14 07:12:41;;;;;;;4.40;2.80;;;;;;;0.33;84.41;99662.27;102169;1313;61632;-23
2021/12/14 07:15:16;;;;;;;1.60;1.20;;;;;;;0.13;85.43;99663.17;102290;1312;61163;-23
2021/12/14 07:17:50;;;;;;;6.10;2.40;;;;;;;0.18;85.71;99664.05;102144;1316;75780;-22
2021/12/14 07:20:21;;;;;;;;;;;;;;;0.64;83.51;99663.72;101786;1317;76193;-23
2021/12/14 07:23:04;;;;;;;2.70;1.80;;;;;;;0.61;83.63;99665.35;101675;1316;74484;-22
2021/12/14 07:25:39;;;;;;;2.60;1.50;;;;;;;0.59;83.40;99665.05;102195;1314;61166;-21
2021/12/14 07:28:11;;;;;;;3.20;2.50;;;;;;;0.28;84.73;99663.08;102200;1313;61106;-21
2021/12/14 07:30:55;;;;;;;2.70;1.90;;;;;;;0.09;85.31;99663.11;101713;1313;75497;-21
2021/12/14 07:33:25;;;;;;;2.30;2.00;;;;;;;0.45;84.70;99669.08;102026;1313;75319;-21
2021/12/14 07:35:59;;;;;;;2.00;1.60;;;;;;;0.64;83.32;99667.84;101782;1314;73466;-21
2021/12/14 07:38:48;;;;;;;3.40;2.40;;;;;;;0.52;84.03;99670.92;101770;1315;61314;-21
2021/12/14 07:41:26;;;;;;;3.30;2.30;;;;;;;0.21;84.96;99671.33;101764;1315;61857;-21
2021/12/14 07:44:11;;;;;;;1.80;1.60;;;;;;;0.14;85.66;99676.98;101770;1319;75867;-20
2021/12/14 07:46:45;;;;;;;2.80;1.90;;;;;;;0.49;84.55;99680.05;102200;1314;76106;-20
2021/12/14 07:49:16;;;;;;;;;;;;;;;0.66;83.22;99678.52;101783;1315;73885;-20
2021/12/14 07:51:45;;;;;;;3.60;1.90;;;;;;;0.52;83.54;99679.13;102070;1313;61902;-21
2021/12/14 07:54:19;;;;;;;2.90;2.20;;;;;;;0.36;84.42;99683.00;101744;1317;61254;-20
2021/12/14 07:56:51;;;;;;;6.90;3.40;;;;;;;0.06;85.42;99679.75;101691;1315;74523;-20
2021/12/14 07:59:21;;;;;;;3.40;1.50;;;;;;;0.06;85.77;99675.48;101673;1315;75000;-20
2021/12/14 08:01:52;;;;;;;2.60;1.80;;;;;;;0.45;84.12;99674.89;101890;1314;72021;-20
2021/12/14 08:04:20;;;;;;;2.30;1.70;;;;;;;0.58;83.35;99675.17;101704;1315;62004;-20
2021/12/14 08:06:54;;;;;;;5.00;2.10;;;;;;;0.40;84.22;99681.01;102176;1312;62125;-20
2021/12/14 08:09:53;;;;;;;2.50;1.20;;;;;;;0.24;84.56;99680.80;101734;1315;74814;-20
2021/12/14 08:12:37;;;;;;;3.00;1.70;;;;;;;0.29;85.07;99682.02;102097;1319;75035;-21
2021/12/14 08:15:17;;;;;;;7.80;2.70;;;;;;;0.64;83.67;99680.46;101723;1316;73681;-20
2021/12/14 08:18:10;;;;;;;7.90;2.90;;;;;;;0.49;83.48;99683.30;101749;1317;61212;-20
2021/12/14 08:20:42;;;;;;;4.80;2.50;;;;;;;0.32;84.56;99685.86;101973;1317;61200;-21
2021/12/14 08:23:14;;;;;;;4.30;2.30;;;;;;;0.19;85.28;99687.26;101710;1315;74903;-20
2021/12/14 08:25:43;;;;;;;3.10;2.00;;;;;;;0.23;85.17;99686.96;101827;1315;76145;-20
2021/12/14 08:28:12;;;;;;;7.40;3.50;;;;;;;0.46;84.23;99689.20;102239;1312;74438;-20
2021/12/14 08:30:43;;;;;;;5.50;2.70;;;;;;;0.68;83.20;99694.17;102251;1313;61180;-20
2021/12/14 08:33:19;;;;;;;4.20;2.50;;;;;;;0.55;83.59;99694.94;102240;1318;61961;-20
2021/12/14 08:35:48;;;;;;;8.80;3.80;;;;;;;0.43;84.01;99695.45;101842;1318;75731;-20
2021/12/14 08:38:18;;;;;;;11.60;5.30;;;;;;;0.30;84.94;99698.04;101963;1315;76131;-20
2021/12/14 08:40:50;;;;;;;3.30;1.50;;;;;;;0.20;85.26;99695.60;101929;1315;74483;-20
2021/12/14 08:43:27;;;;;;;8.10;3.80;;;;;;;0.59;84.01;99693.11;101909;1315;61199;-20
2021/12/14 08:46:09;;;;;;;3.50;2.80;;;;;;;0.83;82.61;99689.82;101929;1315;62224;-21
2021/12/14 08:48:40;;;;;;;3.50;2.10;;;;;;;0.62;83.45;99689.92;102156;1316;75970;-20
2021/12/14 08:51:13;;;;;;;3.30;1.90;;;;;;;0.49;83.94;99689.63;101737;1319;76480;-20
2021/12/14 08:54:05;;;;;;;2.60;2.00;;;;;;;0.12;85.56;99686.59;102009;1316;74540;-21
2021/12/14 08:56:45;;;;;;;2.70;2.10;;;;;;;0.22;85.46;99686.48;102097;1315;61151;-21
2021/12/14 08:59:14;;;;;;;3.60;2.70;;;;;;;0.44;84.49;99683.96;102199;1314;61213;-21
2021/12/14 09:01:43;;;;;;;3.00;2.60;;;;;;;0.48;84.25;99680.94;102198;1314;74670;-21
2021/12/14 09:04:16;;;;;;;2.40;1.90;;;;;;;0.15;85.13;99678.30;102176;1319;75272;-21
2021/12/14 09:06:46;;;;;;;2.80;2.30;;;;;;;0.12;85.53;99673.61;101673;1315;74398;-21
2021/12/14 09:09:16;;;;;;;5.60;2.30;;;;;;;0.19;85.18;99674.27;101654;1315;62076;-22
2021/12/14 09:11:46;;;;;;;2.40;1.80;;;;;;;0.49;84.09;99671.33;101777;1315;62137;-21
2021/12/14 09:14:16;;;;;;;3.70;2.60;;;;;;;0.51;84.24;99671.12;101973;1315;75605;-22
2021/12/14 09:16:47;;;;;;;3.70;2.50;;;;;;;0.39;84.18;99669.59;101943;1319;76483;-22
2021/12/14 09:19:17;;;;;;;4.70;2.90;;;;;;;0.17;85.28;99669.90;102231;1318;73616;-22
2021/12/14 09:21:48;;;;;;;3.90;2.50;;;;;;;0.15;85.55;99669.59;101904;1315;62755;-22
2021/12/14 09:24:17;;;;;;;2.70;2.20;;;;;;;0.56;83.91;99671.66;101966;1313;61812;-21
2021/12/14 09:26:49;;;;;;;3.50;2.10;;;;;;;0.64;83.36;99671.75;101822;1316;75605;-22
2021/12/14 09:29:21;;;;;;;4.60;3.20;;;;;;;0.52;83.60;99671.95;101754;1312;75174;-22
2021/12/14 09:31:51;;;;;;;3.80;2.60;;;;;;;0.13;85.16;99673.23;101758;1319;74753;-22
2021/12/14 09:34:21;;;;;;;2.20;1.70;;;;;;;0.13;85.30;99674.77;101896;1315;61973;-22
2021/12/14 09:36:51;;;;;;;5.00;2.50;;;;;;;0.45;84.40;99673.36;102239;1316;63045;-21
2021/12/14 09:39:29;;;;;;;3.90;2.80;;;;;;;0.59;83.81;99672.23;102229;1314;74896;-21
2021/12/14 09:42:00;;;;;;;1.80;1.30;;;;;;;0.44;83.84;99671.67;102199;1318;75913;-22
2021/12/14 09:44:30;;;;;;;5.20;3.10;;;;;;;0.48;84.20;99673.08;102199;1315;73504;-21
2021/12/14 09:47:01;;;;;;;2.90;1.50;;;;;;;0.14;85.14;99673.39;101937;1315;61045;-21
2021/12/14 09:49:31;;;;;;;3.00;2.30;;;;;;;0.38;84.74;99668.60;101965;1318;61080;-21
2021/12/14 09:52:04;;;;;;;3.50;2.30;;;;;;;0.59;83.63;99667.80;101967;1317;74687;-21
2021/12/14 09:54:33;;;;;;;1.90;1.30;;;;;;;0.44;83.85;99667.40;101957;1315;75750;-21
2021/12/14 09:57:23;;;;;;;2.50;1.90;;;;;;;0.41;83.76;99668.84;102235;1314;74413;-21
2021/12/14 09:59:51;;;;;;;5.50;3.30;;;;;;;0.19;84.83;99675.80;101933;1315;61210;-21
2021/12/14 10:02:24;;;;;;;3.80;2.90;;;;;;;0.28;84.80;99673.15;102292;1320;61871;-21
2021/12/14 10:04:55;;;;;;;2.40;1.80;;;;;;;0.63;83.64;99673.48;101950;1315;75443;-22
2021/12/14 10:07:24;;;;;;;3.50;2.70;;;;;;;0.70;83.07;99668.48;101926;1315;74361;-21
2021/12/14 10:09:54;;;;;;;4.80;3.60;;;;;;;0.23;84.52;99667.33;102099;1316;74906;-22
2021/12/14 10:14:52;;;;;;;3.60;2.00;;;;;;;0.21;85.29;99664.98;102172;1313;61808;-22
2021/12/14 10:17:23;;;;;;;3.50;2.90;;;;;;;0.36;84.35;99662.86;101694;1315;74793;-23
2021/12/14 10:19:51;;;;;;;3.70;2.70;;;;;;;0.40;83.81;99660.17;101706;1315;75795;-22
2021/12/14 10:22:24;;;;;;;2.60;1.90;;;;;;;0.31;84.20;99660.09;102078;1316;74593;-22
2021/12/14 10:24:58;;;;;;;3.20;2.20;;;;;;;0.20;84.22;99659.55;101725;1315;61219;-22
2021/12/14 10:27:27;;;;;;;4.10;2.80;;;;;;;-0.02;85.45;99658.48;101664;1318;61905;-22
2021/12/14 10:29:56;;;;;;;4.10;2.10;;;;;;;0.16;84.97;99654.36;101930;1317;74792;-22
2021/12/14 10:32:28;;;;;;;3.70;2.70;;;;;;;0.34;83.98;99654.20;102112;1319;76048;-22
2021/12/14 10:35:04;;;;;;;3.50;2.60;;;;;;;0.38;83.89;99654.08;101752;1315;74556;-22
2021/12/14 10:37:54;;;;;;;6.20;3.10;;;;;;;0.16;84.02;99651.80;101846;1312;61087;-22
2021/12/14 10:43:22;;;;;;;4.10;2.80;;;;;;;0.13;84.34;99650.67;101820;1317;74620;-22
2021/12/14 10:45:57;;;;;;;3.30;2.10;;;;;;;0.50;82.90;99649.95;102174;1319;73416;-22
2021/12/14 10:48:29;;;;;;;8.50;4.80;;;;;;;0.61;82.45;99647.77;101667;1315;73195;-22
2021/12/14 10:50:59;;;;;;;2.70;2.00;;;;;;;0.49;83.17;99649.30;101774;1317;61215;-22
2021/12/14 10:53:27;;;;;;;3.90;2.20;;;;;;;0.23;83.69;99648.17;101923;1314;61218;-22
2021/12/14 10:56:00;;;;;;;3.30;2.00;;;;;;;0.27;84.41;99648.59;102102;1312;75631;-22
2021/12/14 10:58:29;;;;;;;3.20;2.20;;;;;;;0.88;82.33;99646.57;101730;1315;75181;-22
2021/12/14 11:01:05;;;;;;;4.50;3.20;;;;;;;0.65;82.03;99639.59;101750;1315;73562;-22
2021/12/14 11:03:36;;;;;;;2.20;1.70;;;;;;;0.50;83.10;99645.34;101699;1315;62729;-22
2021/12/14 11:06:09;;;;;;;4.50;3.10;;;;;;;0.39;83.45;99644.81;101803;1316;61051;-22
2021/12/14 11:08:59;;;;;;;3.80;2.80;;;;;;;0.01;84.58;99640.78;101961;1315;75580;-22
2021/12/14 11:11:41;;;;;;;4.20;2.90;;;;;;;0.27;84.32;99641.77;101989;1313;76001;-23
2021/12/14 11:14:12;;;;;;;5.20;3.50;;;;;;;0.57;82.94;99637.62;101957;1315;74275;-22
2021/12/14 11:19:35;;;;;;;8.20;3.80;;;;;;;0.12;84.56;99640.16;102212;1320;61255;-22
2021/12/14 11:22:24;;;;;;;6.80;3.30;;;;;;;-0.04;85.27;99634.30;102234;1316;75450;-22
2021/12/14 11:25:01;;;;;;;2.90;1.40;;;;;;;0.18;84.73;99637.92;102187;1316;76564;-22
2021/12/14 11:27:32;;;;;;;3.40;2.00;;;;;;;0.59;83.18;99632.95;101968;1316;74629;-22
2021/12/14 11:30:21;;;;;;;4.00;2.30;;;;;;;0.48;83.12;99632.09;101696;1315;62054;-23
2021/12/14 11:33:02;;;;;;;4.60;2.80;;;;;;;0.28;83.96;99628.92;102010;1315;61076;-25
2021/12/14 11:35:35;;;;;;;5.00;3.80;;;;;;;-0.07;85.40;99630.42;102024;1319;75343;-24
2021/12/14 11:38:12;;;;;;;3.70;2.60;;;;;;;-0.07;85.86;99630.27;101943;1315;74580;-26
2021/12/14 11:40:40;;;;;;;4.40;3.20;;;;;;;0.24;84.75;99631.94;101958;1315;72695;-25
2021/12/14 11:43:14;;;;;;;5.90;4.10;;;;;;;0.33;84.64;99632.54;102192;1316;61914;-24
2021/12/14 11:45:46;;;;;;;4.40;3.10;;;;;;;0.04;85.24;99635.74;101743;1320;61969;-23
2021/12/14 11:48:15;;;;;;;4.30;2.70;;;;;;;-0.09;86.02;99631.84;102035;1319;75019;-23
2021/12/14 11:50:47;;;;;;;4.30;2.80;;;;;;;-0.16;86.15;99628.11;101660;1315;76123;-23
2021/12/14 11:53:18;;;;;;;3.80;2.70;;;;;;;-0.01;85.37;99628.73;101654;1315;74228;-22
2021/12/14 11:55:57;;;;;;;4.70;2.90;;;;;;;-0.06;85.43;99629.20;102025;1313;62032;-24
2021/12/14 11:58:30;;;;;;;3.50;2.40;;;;;;;-0.10;85.39;99627.63;102175;1313;61230;-25
2021/12/14 12:01:15;;;;;;;2.00;1.60;;;;;;;-0.24;86.20;99625.63;101960;1315;74126;-23
2021/12/14 12:04:01;;;;;;;2.50;1.60;;;;;;;-0.22;86.31;99627.61;101911;1315;75912;-24
2021/12/14 12:09:28;;;;;;;3.60;2.70;;;;;;;0.28;83.86;99629.78;101630;1315;61314;-23
2021/12/14 12:12:02;;;;;;;3.20;2.60;;;;;;;0.18;84.02;99632.46;101945;1319;61813;-23
2021/12/14 12:14:39;;;;;;;4.30;2.80;;;;;;;-0.09;85.07;99633.41;102040;1316;75842;-24
2021/12/14 12:17:31;;;;;;;3.60;1.80;;;;;;;-0.01;85.19;99632.15;101798;1316;75969;-24
2021/12/14 12:20:21;;;;;;;3.60;2.40;;;;;;;0.33;84.06;99627.23;101894;1315;74601;-21
2021/12/14 12:22:55;;;;;;;4.90;2.70;;;;;;;0.62;82.99;99624.84;102285;1312;61081;-23
2021/12/14 12:25:28;;;;;;;3.20;2.00;;;;;;;0.59;82.34;99623.36;101806;1315;62194;-24
2021/12/14 12:27:58;;;;;;;6.00;3.40;;;;;;;0.19;83.84;99625.44;102160;1315;75858;-22
2021/12/14 12:30:30;;;;;;;6.00;3.20;;;;;;;0.08;84.30;99627.11;102209;1315;76216;-21
2021/12/14 12:33:10;;;;;;;4.30;2.40;;;;;;;0.10;85.13;99624.80;102186;1319;71600;-22
2021/12/14 12:35:44;;;;;;;3.10;1.80;;;;;;;0.32;83.49;99629.14;101994;1319;61105;-23
2021/12/14 12:38:22;;;;;;;3.50;2.30;;;;;;;0.48;83.22;99628.16;101909;1312;61212;-23
2021/12/14 12:41:30;;;;;;;2.70;1.90;;;;;;;0.29;83.51;99623.75;101944;1318;73219;-24
2021/12/14 12:44:10;;;;;;;4.40;2.50;;;;;;;0.11;84.38;99623.44;102199;1313;76446;-23
2021/12/14 12:46:43;;;;;;;3.00;2.20;;;;;;;-0.21;85.33;99621.95;101700;1316;74503;-24
2021/12/14 12:49:23;;;;;;;2.30;1.70;;;;;;;0.21;83.94;99624.15;102125;1317;61470;-24
2021/12/14 12:52:13;;;;;;;3.80;2.50;;;;;;;0.51;82.68;99626.52;101836;1316;61164;-24
2021/12/14 12:54:58;;;;;;;5.90;3.30;;;;;;;-0.00;84.02;99628.88;101704;1319;75605;-24
2021/12/14 12:57:46;;;;;;;5.90;3.60;;;;;;;-0.31;85.80;99627.36;101934;1318;75929;-24
2021/12/14 13:00:43;;;;;;;4.30;2.90;;;;;;;-0.33;86.30;99631.50;102242;1316;74460;-24